sensor_id;sensor_type;location;lat;lon;timestamp;temperature;humidity
56240;DHT22;42154;51.992;5.896;2024-01-30T00:01:54;8.10;99.90
56240;DHT22;42154;51.992;5.896;2024-01-30T00:04:19;8.10;99.90
56240;DHT22;42154;51.992;5.896;2024-01-30T00:06:45;8.10;99.90
56240;DHT22;42154;51.992;5.896;2024-01-30T00:09:11;8.10;99.90
56240;DHT22;42154;51.992;5.896;2024-01-30T00:11:40;8.00;99.90
56240;DHT22;42154;51.992;5.896;2024-01-30T00:14:06;8.10;99.90
56240;DHT22;42154;51.992;5.896;2024-01-30T00:16:32;8.10;99.90
56240;DHT22;42154;51.992;5.896;2024-01-30T00:18:57;8.10;99.90
56240;DHT22;42154;51.992;5.896;2024-01-30T00:21:23;8.00;99.90
56240;DHT22;42154;51.992;5.896;2024-01-30T00:23:49;8.00;99.90
56240;DHT22;42154;51.992;5.896;2024-01-30T00:26:15;8.00;99.90
56240;DHT22;42154;51.992;5.896;2024-01-30T00:28:41;8.00;99.90
56240;DHT22;42154;51.992;5.896;2024-01-30T00:31:07;8.00;99.90
56240;DHT22;42154;51.992;5.896;2024-01-30T00:33:33;8.00;99.90
56240;DHT22;42154;51.992;5.896;2024-01-30T00:35:59;8.00;99.90
56240;DHT22;42154;51.992;5.896;2024-01-30T00:38:24;8.00;99.90
56240;DHT22;42154;51.992;5.896;2024-01-30T00:40:50;8.00;99.90
56240;DHT22;42154;51.992;5.896;2024-01-30T00:43:16;8.00;99.90
56240;DHT22;42154;51.992;5.896;2024-01-30T00:45:43;8.00;99.90
56240;DHT22;42154;51.992;5.896;2024-01-30T00:48:09;7.90;99.90
56240;DHT22;42154;51.992;5.896;2024-01-30T00:50:35;7.90;99.90
56240;DHT22;42154;51.992;5.896;2024-01-30T00:53:01;7.90;99.90
56240;DHT22;42154;51.992;5.896;2024-01-30T00:55:27;7.90;99.90
56240;DHT22;42154;51.992;5.896;2024-01-30T00:57:53;7.90;99.90
56240;DHT22;42154;51.992;5.896;2024-01-30T01:00:18;7.90;99.90
56240;DHT22;42154;51.992;5.896;2024-01-30T01:02:46;7.90;99.90
56240;DHT22;42154;51.992;5.896;2024-01-30T01:05:12;7.90;99.90
56240;DHT22;42154;51.992;5.896;2024-01-30T01:07:37;7.90;99.90
56240;DHT22;42154;51.992;5.896;2024-01-30T01:10:03;7.90;99.90
56240;DHT22;42154;51.992;5.896;2024-01-30T01:12:29;7.80;99.90
56240;DHT22;42154;51.992;5.896;2024-01-30T01:14:55;7.80;99.90
56240;DHT22;42154;51.992;5.896;2024-01-30T01:17:21;7.80;99.90
56240;DHT22;42154;51.992;5.896;2024-01-30T01:19:46;7.70;99.90
56240;DHT22;42154;51.992;5.896;2024-01-30T01:22:12;7.70;99.90
56240;DHT22;42154;51.992;5.896;2024-01-30T01:24:38;7.70;99.90
56240;DHT22;42154;51.992;5.896;2024-01-30T01:27:05;7.70;99.90
56240;DHT22;42154;51.992;5.896;2024-01-30T01:29:31;7.60;99.90
56240;DHT22;42154;51.992;5.896;2024-01-30T01:31:58;7.70;99.90
56240;DHT22;42154;51.992;5.896;2024-01-30T01:34:24;7.60;99.90
56240;DHT22;42154;51.992;5.896;2024-01-30T01:36:50;7.60;99.90
56240;DHT22;42154;51.992;5.896;2024-01-30T01:39:17;7.60;99.90
56240;DHT22;42154;51.992;5.896;2024-01-30T01:41:42;7.60;99.90
56240;DHT22;42154;51.992;5.896;2024-01-30T01:44:09;7.50;99.90
56240;DHT22;42154;51.992;5.896;2024-01-30T01:46:35;7.60;99.90
56240;DHT22;42154;51.992;5.896;2024-01-30T01:49:02;7.50;99.90
56240;DHT22;42154;51.992;5.896;2024-01-30T01:51:31;7.50;99.90
56240;DHT22;42154;51.992;5.896;2024-01-30T01:53:59;7.50;99.90
56240;DHT22;42154;51.992;5.896;2024-01-30T01:56:26;7.40;99.90
56240;DHT22;42154;51.992;5.896;2024-01-30T01:58:54;7.40;99.90
56240;DHT22;42154;51.992;5.896;2024-01-30T02:01:21;7.50;99.90
56240;DHT22;42154;51.992;5.896;2024-01-30T02:03:47;7.40;99.90
56240;DHT22;42154;51.992;5.896;2024-01-30T02:06:16;7.40;99.90
56240;DHT22;42154;51.992;5.896;2024-01-30T02:08:42;7.40;99.90
56240;DHT22;42154;51.992;5.896;2024-01-30T02:11:08;7.40;99.90
56240;DHT22;42154;51.992;5.896;2024-01-30T02:13:35;7.40;99.90
56240;DHT22;42154;51.992;5.896;2024-01-30T02:16:01;7.50;99.90
56240;DHT22;42154;51.992;5.896;2024-01-30T02:18:27;7.40;99.90
56240;DHT22;42154;51.992;5.896;2024-01-30T02:20:54;7.40;99.90
56240;DHT22;42154;51.992;5.896;2024-01-30T02:23:23;7.40;99.90
56240;DHT22;42154;51.992;5.896;2024-01-30T02:25:49;7.40;99.90
56240;DHT22;42154;51.992;5.896;2024-01-30T02:28:15;7.30;99.90
56240;DHT22;42154;51.992;5.896;2024-01-30T02:30:43;7.30;99.90
56240;DHT22;42154;51.992;5.896;2024-01-30T02:33:08;7.30;99.90
56240;DHT22;42154;51.992;5.896;2024-01-30T02:35:34;7.30;99.90
56240;DHT22;42154;51.992;5.896;2024-01-30T02:38:00;7.30;99.90
56240;DHT22;42154;51.992;5.896;2024-01-30T02:40:26;7.20;99.90
56240;DHT22;42154;51.992;5.896;2024-01-30T02:42:52;7.20;99.90
56240;DHT22;42154;51.992;5.896;2024-01-30T02:45:18;7.20;99.90
56240;DHT22;42154;51.992;5.896;2024-01-30T02:47:44;7.10;99.90
56240;DHT22;42154;51.992;5.896;2024-01-30T02:50:09;7.10;99.90
56240;DHT22;42154;51.992;5.896;2024-01-30T02:52:35;7.10;99.90
56240;DHT22;42154;51.992;5.896;2024-01-30T02:55:01;7.10;99.90
56240;DHT22;42154;51.992;5.896;2024-01-30T02:57:28;7.10;99.90
56240;DHT22;42154;51.992;5.896;2024-01-30T02:59:54;7.10;99.90
56240;DHT22;42154;51.992;5.896;2024-01-30T03:02:19;7.10;99.90
56240;DHT22;42154;51.992;5.896;2024-01-30T03:04:46;7.10;99.90
56240;DHT22;42154;51.992;5.896;2024-01-30T03:07:12;7.10;99.90
56240;DHT22;42154;51.992;5.896;2024-01-30T03:09:38;7.10;99.90
56240;DHT22;42154;51.992;5.896;2024-01-30T03:12:04;7.10;99.90
56240;DHT22;42154;51.992;5.896;2024-01-30T03:14:31;7.10;99.90
56240;DHT22;42154;51.992;5.896;2024-01-30T03:16:57;7.10;99.90
56240;DHT22;42154;51.992;5.896;2024-01-30T03:19:23;7.10;99.90
56240;DHT22;42154;51.992;5.896;2024-01-30T03:21:49;7.20;99.90
56240;DHT22;42154;51.992;5.896;2024-01-30T03:24:15;7.10;99.90
56240;DHT22;42154;51.992;5.896;2024-01-30T03:26:40;7.00;99.90
56240;DHT22;42154;51.992;5.896;2024-01-30T03:29:06;7.00;99.90
56240;DHT22;42154;51.992;5.896;2024-01-30T03:31:32;7.10;99.90
56240;DHT22;42154;51.992;5.896;2024-01-30T03:33:57;7.00;99.90
56240;DHT22;42154;51.992;5.896;2024-01-30T03:36:23;7.00;99.90
56240;DHT22;42154;51.992;5.896;2024-01-30T03:38:49;7.00;99.90
56240;DHT22;42154;51.992;5.896;2024-01-30T03:41:15;7.00;99.90
56240;DHT22;42154;51.992;5.896;2024-01-30T03:43:41;7.00;99.90
56240;DHT22;42154;51.992;5.896;2024-01-30T03:46:06;7.00;99.90
56240;DHT22;42154;51.992;5.896;2024-01-30T03:48:32;7.10;99.90
56240;DHT22;42154;51.992;5.896;2024-01-30T03:50:58;7.00;99.90
56240;DHT22;42154;51.992;5.896;2024-01-30T03:53:24;7.00;99.90
56240;DHT22;42154;51.992;5.896;2024-01-30T03:55:49;7.00;99.90
56240;DHT22;42154;51.992;5.896;2024-01-30T03:58:15;7.00;99.90
56240;DHT22;42154;51.992;5.896;2024-01-30T04:00:41;7.00;99.90
56240;DHT22;42154;51.992;5.896;2024-01-30T04:03:07;7.00;99.90
56240;DHT22;42154;51.992;5.896;2024-01-30T04:05:33;7.00;99.90
56240;DHT22;42154;51.992;5.896;2024-01-30T04:07:59;7.00;99.90
56240;DHT22;42154;51.992;5.896;2024-01-30T04:10:25;7.10;99.90
56240;DHT22;42154;51.992;5.896;2024-01-30T04:12:51;7.10;99.90
56240;DHT22;42154;51.992;5.896;2024-01-30T04:15:17;7.10;99.90
56240;DHT22;42154;51.992;5.896;2024-01-30T04:17:44;7.00;99.90
56240;DHT22;42154;51.992;5.896;2024-01-30T04:20:16;7.10;99.90
56240;DHT22;42154;51.992;5.896;2024-01-30T04:22:43;7.20;99.90
56240;DHT22;42154;51.992;5.896;2024-01-30T04:25:09;7.20;99.90
56240;DHT22;42154;51.992;5.896;2024-01-30T04:27:35;7.20;99.90
56240;DHT22;42154;51.992;5.896;2024-01-30T04:30:01;7.20;99.90
56240;DHT22;42154;51.992;5.896;2024-01-30T04:32:26;7.20;99.90
56240;DHT22;42154;51.992;5.896;2024-01-30T04:34:52;7.20;99.90
56240;DHT22;42154;51.992;5.896;2024-01-30T04:37:18;7.30;99.90
56240;DHT22;42154;51.992;5.896;2024-01-30T04:39:44;7.20;99.90
56240;DHT22;42154;51.992;5.896;2024-01-30T04:42:09;7.20;99.90
56240;DHT22;42154;51.992;5.896;2024-01-30T04:44:35;7.20;99.90
56240;DHT22;42154;51.992;5.896;2024-01-30T04:47:01;7.30;99.90
56240;DHT22;42154;51.992;5.896;2024-01-30T04:49:27;7.20;99.90
56240;DHT22;42154;51.992;5.896;2024-01-30T04:51:54;7.20;99.90
56240;DHT22;42154;51.992;5.896;2024-01-30T04:54:20;7.20;99.90
56240;DHT22;42154;51.992;5.896;2024-01-30T04:56:46;7.20;99.90
56240;DHT22;42154;51.992;5.896;2024-01-30T04:59:12;7.20;99.90
56240;DHT22;42154;51.992;5.896;2024-01-30T05:01:37;7.20;99.90
56240;DHT22;42154;51.992;5.896;2024-01-30T05:04:03;7.30;99.90
56240;DHT22;42154;51.992;5.896;2024-01-30T05:06:29;7.30;99.90
56240;DHT22;42154;51.992;5.896;2024-01-30T05:08:55;7.30;99.90
56240;DHT22;42154;51.992;5.896;2024-01-30T05:11:21;7.30;99.90
56240;DHT22;42154;51.992;5.896;2024-01-30T05:13:47;7.40;99.90
56240;DHT22;42154;51.992;5.896;2024-01-30T05:16:13;7.30;99.90
56240;DHT22;42154;51.992;5.896;2024-01-30T05:18:39;7.30;99.90
56240;DHT22;42154;51.992;5.896;2024-01-30T05:21:05;7.30;99.90
56240;DHT22;42154;51.992;5.896;2024-01-30T05:23:31;7.40;99.90
56240;DHT22;42154;51.992;5.896;2024-01-30T05:25:57;7.40;99.90
56240;DHT22;42154;51.992;5.896;2024-01-30T05:28:23;7.40;99.90
56240;DHT22;42154;51.992;5.896;2024-01-30T05:30:48;7.40;99.90
56240;DHT22;42154;51.992;5.896;2024-01-30T05:33:14;7.40;99.90
56240;DHT22;42154;51.992;5.896;2024-01-30T05:35:40;7.50;99.90
56240;DHT22;42154;51.992;5.896;2024-01-30T05:38:05;7.50;99.90
56240;DHT22;42154;51.992;5.896;2024-01-30T05:40:31;7.60;99.90
56240;DHT22;42154;51.992;5.896;2024-01-30T05:42:57;7.60;99.90
56240;DHT22;42154;51.992;5.896;2024-01-30T05:45:28;7.70;99.90
56240;DHT22;42154;51.992;5.896;2024-01-30T05:47:54;7.70;99.90
56240;DHT22;42154;51.992;5.896;2024-01-30T05:50:20;7.70;99.90
56240;DHT22;42154;51.992;5.896;2024-01-30T05:52:45;7.70;99.90
56240;DHT22;42154;51.992;5.896;2024-01-30T05:55:12;7.80;99.90
56240;DHT22;42154;51.992;5.896;2024-01-30T05:57:38;7.80;99.90
56240;DHT22;42154;51.992;5.896;2024-01-30T06:00:05;7.80;99.90
56240;DHT22;42154;51.992;5.896;2024-01-30T06:02:32;7.80;99.90
56240;DHT22;42154;51.992;5.896;2024-01-30T06:04:58;7.80;99.90
56240;DHT22;42154;51.992;5.896;2024-01-30T06:07:24;7.90;99.90
56240;DHT22;42154;51.992;5.896;2024-01-30T06:09:49;7.90;99.90
56240;DHT22;42154;51.992;5.896;2024-01-30T06:12:15;7.90;99.90
56240;DHT22;42154;51.992;5.896;2024-01-30T06:14:41;7.80;99.90
56240;DHT22;42154;51.992;5.896;2024-01-30T06:17:08;7.90;99.90
56240;DHT22;42154;51.992;5.896;2024-01-30T06:19:34;8.00;99.90
56240;DHT22;42154;51.992;5.896;2024-01-30T06:22:00;8.00;99.90
56240;DHT22;42154;51.992;5.896;2024-01-30T06:24:26;8.00;99.90
56240;DHT22;42154;51.992;5.896;2024-01-30T06:26:51;8.00;99.90
56240;DHT22;42154;51.992;5.896;2024-01-30T06:29:17;8.10;99.90
56240;DHT22;42154;51.992;5.896;2024-01-30T06:31:43;8.10;99.90
56240;DHT22;42154;51.992;5.896;2024-01-30T06:34:09;8.10;99.90
56240;DHT22;42154;51.992;5.896;2024-01-30T06:36:35;8.10;99.90
56240;DHT22;42154;51.992;5.896;2024-01-30T06:39:02;8.20;99.90
56240;DHT22;42154;51.992;5.896;2024-01-30T06:41:28;8.20;99.90
56240;DHT22;42154;51.992;5.896;2024-01-30T06:43:54;8.20;99.90
56240;DHT22;42154;51.992;5.896;2024-01-30T06:46:19;8.30;99.90
56240;DHT22;42154;51.992;5.896;2024-01-30T06:48:45;8.30;99.90
56240;DHT22;42154;51.992;5.896;2024-01-30T06:51:11;8.30;99.90
56240;DHT22;42154;51.992;5.896;2024-01-30T06:53:37;8.40;99.90
56240;DHT22;42154;51.992;5.896;2024-01-30T06:56:04;8.40;99.90
56240;DHT22;42154;51.992;5.896;2024-01-30T06:58:29;8.40;99.90
56240;DHT22;42154;51.992;5.896;2024-01-30T07:00:56;8.40;99.90
56240;DHT22;42154;51.992;5.896;2024-01-30T07:03:22;8.40;99.90
56240;DHT22;42154;51.992;5.896;2024-01-30T07:05:48;8.40;99.90
56240;DHT22;42154;51.992;5.896;2024-01-30T07:08:18;8.40;99.90
56240;DHT22;42154;51.992;5.896;2024-01-30T07:10:44;8.40;99.90
56240;DHT22;42154;51.992;5.896;2024-01-30T07:13:11;8.50;99.90
56240;DHT22;42154;51.992;5.896;2024-01-30T07:15:36;8.50;99.90
56240;DHT22;42154;51.992;5.896;2024-01-30T07:18:03;8.60;99.90
56240;DHT22;42154;51.992;5.896;2024-01-30T07:20:30;8.60;99.90
56240;DHT22;42154;51.992;5.896;2024-01-30T07:23:00;8.70;99.90
56240;DHT22;42154;51.992;5.896;2024-01-30T07:25:26;8.70;99.90
56240;DHT22;42154;51.992;5.896;2024-01-30T07:27:55;8.60;99.90
56240;DHT22;42154;51.992;5.896;2024-01-30T07:30:21;8.70;99.90
56240;DHT22;42154;51.992;5.896;2024-01-30T07:32:48;8.70;99.90
56240;DHT22;42154;51.992;5.896;2024-01-30T07:35:14;8.70;99.90
56240;DHT22;42154;51.992;5.896;2024-01-30T07:37:40;8.70;99.90
56240;DHT22;42154;51.992;5.896;2024-01-30T07:40:06;8.80;99.90
56240;DHT22;42154;51.992;5.896;2024-01-30T07:42:33;8.80;99.90
56240;DHT22;42154;51.992;5.896;2024-01-30T07:45:00;8.80;99.90
56240;DHT22;42154;51.992;5.896;2024-01-30T07:47:26;8.80;99.90
56240;DHT22;42154;51.992;5.896;2024-01-30T07:49:51;8.80;99.90
56240;DHT22;42154;51.992;5.896;2024-01-30T07:52:18;8.80;99.90
56240;DHT22;42154;51.992;5.896;2024-01-30T07:54:50;8.80;99.90
56240;DHT22;42154;51.992;5.896;2024-01-30T07:57:17;8.80;99.90
56240;DHT22;42154;51.992;5.896;2024-01-30T07:59:43;8.90;99.90
56240;DHT22;42154;51.992;5.896;2024-01-30T08:02:10;8.80;99.90
56240;DHT22;42154;51.992;5.896;2024-01-30T08:04:36;8.90;99.90
56240;DHT22;42154;51.992;5.896;2024-01-30T08:07:01;8.90;99.90
56240;DHT22;42154;51.992;5.896;2024-01-30T08:09:27;8.90;99.90
56240;DHT22;42154;51.992;5.896;2024-01-30T08:11:53;9.00;99.90
56240;DHT22;42154;51.992;5.896;2024-01-30T08:14:19;9.00;99.90
56240;DHT22;42154;51.992;5.896;2024-01-30T08:16:44;9.10;99.90
56240;DHT22;42154;51.992;5.896;2024-01-30T08:19:10;9.10;99.90
56240;DHT22;42154;51.992;5.896;2024-01-30T08:21:36;9.20;99.90
56240;DHT22;42154;51.992;5.896;2024-01-30T08:24:03;9.20;99.90
56240;DHT22;42154;51.992;5.896;2024-01-30T08:26:31;9.30;99.90
56240;DHT22;42154;51.992;5.896;2024-01-30T08:28:56;9.30;99.90
56240;DHT22;42154;51.992;5.896;2024-01-30T08:31:22;9.40;99.90
56240;DHT22;42154;51.992;5.896;2024-01-30T08:33:48;9.40;99.90
56240;DHT22;42154;51.992;5.896;2024-01-30T08:36:15;9.50;99.90
56240;DHT22;42154;51.992;5.896;2024-01-30T08:38:41;9.50;99.90
56240;DHT22;42154;51.992;5.896;2024-01-30T08:41:07;9.60;99.90
56240;DHT22;42154;51.992;5.896;2024-01-30T08:43:33;9.60;99.90
56240;DHT22;42154;51.992;5.896;2024-01-30T08:45:59;9.60;99.90
56240;DHT22;42154;51.992;5.896;2024-01-30T08:48:26;9.70;99.90
56240;DHT22;42154;51.992;5.896;2024-01-30T08:50:51;9.70;99.90
56240;DHT22;42154;51.992;5.896;2024-01-30T08:53:17;9.70;99.90
56240;DHT22;42154;51.992;5.896;2024-01-30T08:55:44;9.80;99.90
56240;DHT22;42154;51.992;5.896;2024-01-30T08:58:09;9.80;99.90
56240;DHT22;42154;51.992;5.896;2024-01-30T09:00:36;9.80;99.90
56240;DHT22;42154;51.992;5.896;2024-01-30T09:03:02;9.80;99.90
56240;DHT22;42154;51.992;5.896;2024-01-30T09:05:28;9.90;99.90
56240;DHT22;42154;51.992;5.896;2024-01-30T09:07:54;9.90;99.90
56240;DHT22;42154;51.992;5.896;2024-01-30T09:10:20;10.00;99.90
56240;DHT22;42154;51.992;5.896;2024-01-30T09:12:46;10.00;99.90
56240;DHT22;42154;51.992;5.896;2024-01-30T09:15:12;10.00;99.90
56240;DHT22;42154;51.992;5.896;2024-01-30T09:17:38;10.10;99.90
56240;DHT22;42154;51.992;5.896;2024-01-30T09:20:04;10.10;99.90
56240;DHT22;42154;51.992;5.896;2024-01-30T09:22:30;10.10;99.90
56240;DHT22;42154;51.992;5.896;2024-01-30T09:24:57;10.10;99.90
56240;DHT22;42154;51.992;5.896;2024-01-30T09:27:23;10.10;99.90
56240;DHT22;42154;51.992;5.896;2024-01-30T09:29:49;10.20;99.90
56240;DHT22;42154;51.992;5.896;2024-01-30T09:32:15;10.20;99.90
56240;DHT22;42154;51.992;5.896;2024-01-30T09:34:40;10.20;99.90
56240;DHT22;42154;51.992;5.896;2024-01-30T09:37:07;10.30;99.90
56240;DHT22;42154;51.992;5.896;2024-01-30T09:39:33;10.30;99.90
56240;DHT22;42154;51.992;5.896;2024-01-30T09:42:44;10.30;99.90
56240;DHT22;42154;51.992;5.896;2024-01-30T09:45:03;10.40;99.90
56240;DHT22;42154;51.992;5.896;2024-01-30T09:47:42;10.40;99.90
56240;DHT22;42154;51.992;5.896;2024-01-30T09:50:13;10.40;99.90
56240;DHT22;42154;51.992;5.896;2024-01-30T09:52:39;10.50;99.90
56240;DHT22;42154;51.992;5.896;2024-01-30T09:55:06;10.50;99.90
56240;DHT22;42154;51.992;5.896;2024-01-30T09:57:33;10.50;99.90
56240;DHT22;42154;51.992;5.896;2024-01-30T09:59:59;10.50;99.90
56240;DHT22;42154;51.992;5.896;2024-01-30T10:02:25;10.50;99.90
56240;DHT22;42154;51.992;5.896;2024-01-30T10:04:51;10.60;99.90
56240;DHT22;42154;51.992;5.896;2024-01-30T10:07:18;10.60;99.90
56240;DHT22;42154;51.992;5.896;2024-01-30T10:09:45;10.60;99.90
56240;DHT22;42154;51.992;5.896;2024-01-30T10:12:11;10.60;99.90
56240;DHT22;42154;51.992;5.896;2024-01-30T10:14:41;10.70;99.90
56240;DHT22;42154;51.992;5.896;2024-01-30T10:17:11;10.70;99.90
56240;DHT22;42154;51.992;5.896;2024-01-30T10:19:41;10.80;99.90
56240;DHT22;42154;51.992;5.896;2024-01-30T10:22:07;10.80;99.90
56240;DHT22;42154;51.992;5.896;2024-01-30T10:24:34;10.90;99.90
56240;DHT22;42154;51.992;5.896;2024-01-30T10:27:00;10.90;99.90
56240;DHT22;42154;51.992;5.896;2024-01-30T10:29:27;10.90;99.90
56240;DHT22;42154;51.992;5.896;2024-01-30T10:32:03;10.90;99.90
56240;DHT22;42154;51.992;5.896;2024-01-30T10:34:30;10.90;99.90
56240;DHT22;42154;51.992;5.896;2024-01-30T10:37:11;10.90;99.90
56240;DHT22;42154;51.992;5.896;2024-01-30T10:39:44;11.00;99.90
56240;DHT22;42154;51.992;5.896;2024-01-30T10:42:18;11.00;99.90
56240;DHT22;42154;51.992;5.896;2024-01-30T10:45:08;11.00;99.90
56240;DHT22;42154;51.992;5.896;2024-01-30T10:47:35;11.00;99.90
56240;DHT22;42154;51.992;5.896;2024-01-30T10:50:05;11.00;99.90
56240;DHT22;42154;51.992;5.896;2024-01-30T10:52:32;11.10;99.90
56240;DHT22;42154;51.992;5.896;2024-01-30T10:54:58;11.10;99.90
56240;DHT22;42154;51.992;5.896;2024-01-30T10:57:25;11.20;99.90
56240;DHT22;42154;51.992;5.896;2024-01-30T10:59:59;11.20;99.90
56240;DHT22;42154;51.992;5.896;2024-01-30T11:02:26;11.30;99.90
56240;DHT22;42154;51.992;5.896;2024-01-30T11:04:57;11.30;99.90
56240;DHT22;42154;51.992;5.896;2024-01-30T11:07:28;11.40;99.90
56240;DHT22;42154;51.992;5.896;2024-01-30T11:10:01;11.40;99.90
56240;DHT22;42154;51.992;5.896;2024-01-30T11:12:28;11.50;99.90
56240;DHT22;42154;51.992;5.896;2024-01-30T11:15:14;11.50;99.90
56240;DHT22;42154;51.992;5.896;2024-01-30T11:20:25;11.70;99.90
56240;DHT22;42154;51.992;5.896;2024-01-30T11:22:52;11.80;99.90
56240;DHT22;42154;51.992;5.896;2024-01-30T11:25:20;11.90;99.90
56240;DHT22;42154;51.992;5.896;2024-01-30T11:27:49;11.90;99.90
56240;DHT22;42154;51.992;5.896;2024-01-30T11:30:29;12.00;99.90
56240;DHT22;42154;51.992;5.896;2024-01-30T11:33:11;12.00;99.90
56240;DHT22;42154;51.992;5.896;2024-01-30T11:35:46;12.00;99.90
56240;DHT22;42154;51.992;5.896;2024-01-30T11:38:16;11.90;99.90
56240;DHT22;42154;51.992;5.896;2024-01-30T11:40:42;11.90;99.90
56240;DHT22;42154;51.992;5.896;2024-01-30T11:43:09;11.90;99.90
56240;DHT22;42154;51.992;5.896;2024-01-30T11:45:36;11.90;99.90
56240;DHT22;42154;51.992;5.896;2024-01-30T11:48:02;12.00;99.90
56240;DHT22;42154;51.992;5.896;2024-01-30T11:50:32;12.10;99.90
56240;DHT22;42154;51.992;5.896;2024-01-30T11:53:02;12.10;99.90
56240;DHT22;42154;51.992;5.896;2024-01-30T11:55:29;12.20;99.90
56240;DHT22;42154;51.992;5.896;2024-01-30T11:57:59;12.30;99.90
56240;DHT22;42154;51.992;5.896;2024-01-30T12:00:25;12.40;99.90
56240;DHT22;42154;51.992;5.896;2024-01-30T12:02:55;12.50;99.90
56240;DHT22;42154;51.992;5.896;2024-01-30T12:05:28;12.50;99.90
56240;DHT22;42154;51.992;5.896;2024-01-30T12:07:54;12.50;99.90
56240;DHT22;42154;51.992;5.896;2024-01-30T12:10:19;12.50;99.90
56240;DHT22;42154;51.992;5.896;2024-01-30T12:12:47;12.40;99.90
56240;DHT22;42154;51.992;5.896;2024-01-30T12:15:14;12.40;99.90
56240;DHT22;42154;51.992;5.896;2024-01-30T12:17:40;12.40;99.90
56240;DHT22;42154;51.992;5.896;2024-01-30T12:20:11;12.40;99.90
56240;DHT22;42154;51.992;5.896;2024-01-30T12:22:44;12.40;99.90
56240;DHT22;42154;51.992;5.896;2024-01-30T12:25:11;12.40;99.90
56240;DHT22;42154;51.992;5.896;2024-01-30T12:27:38;12.50;99.90
56240;DHT22;42154;51.992;5.896;2024-01-30T12:30:11;12.60;99.90
56240;DHT22;42154;51.992;5.896;2024-01-30T12:32:42;12.60;99.90
56240;DHT22;42154;51.992;5.896;2024-01-30T12:35:16;12.70;99.90
56240;DHT22;42154;51.992;5.896;2024-01-30T12:37:47;12.70;99.90
56240;DHT22;42154;51.992;5.896;2024-01-30T12:40:14;12.70;99.90
56240;DHT22;42154;51.992;5.896;2024-01-30T12:42:47;12.60;99.90
56240;DHT22;42154;51.992;5.896;2024-01-30T12:45:15;12.50;99.90
56240;DHT22;42154;51.992;5.896;2024-01-30T12:47:42;12.40;99.90
56240;DHT22;42154;51.992;5.896;2024-01-30T12:50:07;12.30;99.90
56240;DHT22;42154;51.992;5.896;2024-01-30T12:52:35;12.30;99.90
56240;DHT22;42154;51.992;5.896;2024-01-30T12:55:01;12.20;99.90
56240;DHT22;42154;51.992;5.896;2024-01-30T12:57:26;12.20;99.90
56240;DHT22;42154;51.992;5.896;2024-01-30T12:59:52;12.10;99.90
56240;DHT22;42154;51.992;5.896;2024-01-30T13:02:18;12.00;99.90
56240;DHT22;42154;51.992;5.896;2024-01-30T13:04:44;12.00;99.90
56240;DHT22;42154;51.992;5.896;2024-01-30T13:07:09;12.00;99.90
56240;DHT22;42154;51.992;5.896;2024-01-30T13:09:35;12.10;99.90
56240;DHT22;42154;51.992;5.896;2024-01-30T13:12:01;12.00;99.90
56240;DHT22;42154;51.992;5.896;2024-01-30T13:14:27;12.00;99.90
56240;DHT22;42154;51.992;5.896;2024-01-30T13:16:53;12.00;99.90
56240;DHT22;42154;51.992;5.896;2024-01-30T13:19:19;12.00;99.90
56240;DHT22;42154;51.992;5.896;2024-01-30T13:21:44;12.10;99.90
56240;DHT22;42154;51.992;5.896;2024-01-30T13:24:10;12.00;99.90
56240;DHT22;42154;51.992;5.896;2024-01-30T13:26:36;12.00;99.90
56240;DHT22;42154;51.992;5.896;2024-01-30T13:29:02;12.00;99.90
56240;DHT22;42154;51.992;5.896;2024-01-30T13:31:29;12.00;99.90
56240;DHT22;42154;51.992;5.896;2024-01-30T13:33:55;12.10;99.90
56240;DHT22;42154;51.992;5.896;2024-01-30T13:36:21;12.00;99.90
56240;DHT22;42154;51.992;5.896;2024-01-30T13:38:47;12.00;99.90
56240;DHT22;42154;51.992;5.896;2024-01-30T13:41:13;11.80;99.90
56240;DHT22;42154;51.992;5.896;2024-01-30T13:43:39;11.70;99.90
56240;DHT22;42154;51.992;5.896;2024-01-30T13:46:05;11.60;99.90
56240;DHT22;42154;51.992;5.896;2024-01-30T13:48:31;11.60;99.90
56240;DHT22;42154;51.992;5.896;2024-01-30T13:50:57;11.50;99.90
56240;DHT22;42154;51.992;5.896;2024-01-30T13:53:23;11.40;99.90
56240;DHT22;42154;51.992;5.896;2024-01-30T13:55:49;11.30;99.90
56240;DHT22;42154;51.992;5.896;2024-01-30T13:58:15;11.20;99.90
56240;DHT22;42154;51.992;5.896;2024-01-30T14:00:40;11.10;99.90
56240;DHT22;42154;51.992;5.896;2024-01-30T14:03:06;11.10;99.90
56240;DHT22;42154;51.992;5.896;2024-01-30T14:05:32;11.10;99.90
56240;DHT22;42154;51.992;5.896;2024-01-30T14:07:59;11.10;99.90
56240;DHT22;42154;51.992;5.896;2024-01-30T14:10:25;11.00;99.90
56240;DHT22;42154;51.992;5.896;2024-01-30T14:12:51;11.00;99.90
56240;DHT22;42154;51.992;5.896;2024-01-30T14:15:17;11.00;99.90
56240;DHT22;42154;51.992;5.896;2024-01-30T14:17:46;10.90;99.90
56240;DHT22;42154;51.992;5.896;2024-01-30T14:20:14;10.90;99.90
56240;DHT22;42154;51.992;5.896;2024-01-30T14:22:42;10.90;99.90
56240;DHT22;42154;51.992;5.896;2024-01-30T14:25:08;10.90;99.90
56240;DHT22;42154;51.992;5.896;2024-01-30T14:27:35;10.90;99.90
56240;DHT22;42154;51.992;5.896;2024-01-30T14:30:00;10.90;99.90
56240;DHT22;42154;51.992;5.896;2024-01-30T14:32:26;10.90;99.90
56240;DHT22;42154;51.992;5.896;2024-01-30T14:34:52;10.90;99.90
56240;DHT22;42154;51.992;5.896;2024-01-30T14:37:21;10.80;99.90
56240;DHT22;42154;51.992;5.896;2024-01-30T14:39:47;10.80;99.90
56240;DHT22;42154;51.992;5.896;2024-01-30T14:42:14;10.80;99.90
56240;DHT22;42154;51.992;5.896;2024-01-30T14:44:40;10.90;99.90
56240;DHT22;42154;51.992;5.896;2024-01-30T14:47:06;10.90;99.90
56240;DHT22;42154;51.992;5.896;2024-01-30T14:49:31;10.80;99.90
56240;DHT22;42154;51.992;5.896;2024-01-30T14:51:57;10.80;99.90
56240;DHT22;42154;51.992;5.896;2024-01-30T14:54:24;10.80;99.90
56240;DHT22;42154;51.992;5.896;2024-01-30T14:56:51;10.80;99.90
56240;DHT22;42154;51.992;5.896;2024-01-30T14:59:17;10.70;99.90
56240;DHT22;42154;51.992;5.896;2024-01-30T15:01:43;10.80;99.90
56240;DHT22;42154;51.992;5.896;2024-01-30T15:04:09;10.70;99.90
56240;DHT22;42154;51.992;5.896;2024-01-30T15:06:35;10.60;99.90
56240;DHT22;42154;51.992;5.896;2024-01-30T15:09:01;10.60;99.90
56240;DHT22;42154;51.992;5.896;2024-01-30T15:11:27;10.50;99.90
56240;DHT22;42154;51.992;5.896;2024-01-30T15:13:53;10.50;99.90
56240;DHT22;42154;51.992;5.896;2024-01-30T15:16:18;10.50;99.90
56240;DHT22;42154;51.992;5.896;2024-01-30T15:18:44;10.50;99.90
56240;DHT22;42154;51.992;5.896;2024-01-30T15:21:10;10.40;99.90
56240;DHT22;42154;51.992;5.896;2024-01-30T15:23:35;10.40;99.90
56240;DHT22;42154;51.992;5.896;2024-01-30T15:26:01;10.40;99.90
56240;DHT22;42154;51.992;5.896;2024-01-30T15:28:37;10.30;99.90
56240;DHT22;42154;51.992;5.896;2024-01-30T15:31:04;10.30;99.90
56240;DHT22;42154;51.992;5.896;2024-01-30T15:33:30;10.30;99.90
56240;DHT22;42154;51.992;5.896;2024-01-30T15:35:57;10.30;99.90
56240;DHT22;42154;51.992;5.896;2024-01-30T15:38:23;10.30;99.90
56240;DHT22;42154;51.992;5.896;2024-01-30T15:40:49;10.20;99.90